Погода Зейтунна неделю

Аура, Мальта

04 - 10 сентября
  • 04сентября
    Сегодня
    +25°
    +33°
    Ясно и безоблачно
    ВремяПогодаТемператураВлажностьДавлениеВетер, м/сВероятность осадков
    02:00Ясно и безоблачно+27°C80 %757 мм2.7 м/с2 %
    05:00Ясно и безоблачно+26°C77 %757 мм3.0 м/с2 %
    08:00Практически безоблачно+28°C68 %757 мм3.5 м/с2 %
    11:00Ясно и безоблачно+31°C56 %758 мм5.1 м/с2 %
    14:00Ясно и безоблачно+32°C51 %758 мм4.8 м/с2 %
    17:00Ясно и безоблачно+32°C47 %758 мм3.6 м/с1 %
    20:00Ясно и безоблачно+29°C64 %758 мм2.6 м/с2 %
    23:00Ясно и безоблачно+28°C72 %759 мм2.8 м/с2 %
  • 05сентября
    Суббота
    +25°
    +33°
    Ясно и безоблачно
    ВремяПогодаТемператураВлажностьДавлениеВетер, м/сВероятность осадков
    02:00Ясно и безоблачно+26°C77 %759 мм2.5 м/с2 %
    05:00Ясно и безоблачно+26°C82 %759 мм2.3 м/с2 %
    08:00Ясно и безоблачно+28°C72 %760 мм2.2 м/с2 %
    11:00Ясно и безоблачно+32°C51 %760 мм2.9 м/с2 %
    14:00Ясно и безоблачно+32°C49 %760 мм3.4 м/с2 %
    17:00Ясно и безоблачно+32°C49 %759 мм3.4 м/с2 %
    20:00Ясно и безоблачно+29°C65 %760 мм3.1 м/с2 %
    23:00Ясно и безоблачно+27°C76 %760 мм2.6 м/с2 %
  • 06сентября
    Воскресенье
    +24°
    +33°
    Ясно и безоблачно
    ВремяПогодаТемператураВлажностьДавлениеВетер, м/сВероятность осадков
    02:00Ясно и безоблачно+26°C82 %760 мм2.7 м/с2 %
    05:00Ясно и безоблачно+26°C84 %759 мм3.1 м/с2 %
    08:00Ясно и безоблачно+27°C78 %760 мм3.4 м/с2 %
    11:00Ясно и безоблачно+32°C58 %761 мм4.9 м/с2 %
    14:00Ясно и безоблачно+33°C53 %760 мм5.6 м/с2 %
    17:00Ясно и безоблачно+32°C53 %760 мм4.7 м/с2 %
    20:00Ясно и безоблачно+28°C71 %760 мм3.6 м/с2 %
    23:00Ясно и безоблачно+27°C79 %760 мм3.1 м/с2 %
  • 07сентября
    Понедельник
    +24°
    +33°
    Ясно и безоблачно
    ВремяПогодаТемператураВлажностьДавлениеВетер, м/сВероятность осадков
    02:00Ясно и безоблачно+26°C81 %760 мм2.7 м/с2 %
    05:00Ясно и безоблачно+25°C85 %760 мм2.8 м/с2 %
    08:00Ясно и безоблачно+27°C80 %760 мм3.0 м/с2 %
    11:00Ясно и безоблачно+32°C57 %761 мм3.9 м/с2 %
    14:00Ясно и безоблачно+33°C54 %760 мм4.5 м/с2 %
    17:00Ясно и безоблачно+32°C52 %759 мм3.8 м/с2 %
    20:00Ясно и безоблачно+28°C68 %759 мм2.7 м/с2 %
    23:00Ясно и безоблачно+27°C73 %760 мм1.6 м/с2 %
  • 08сентября
    Вторник
    +24°
    +33°
    Ясно и безоблачно
    ВремяПогодаТемператураВлажностьДавлениеВетер, м/сВероятность осадков
    02:00Ясно и безоблачно+25°C78 %759 мм1.5 м/с2 %
    05:00Ясно и безоблачно+25°C85 %758 мм1.9 м/с2 %
    08:00Ясно и безоблачно+26°C79 %758 мм2.8 м/с2 %
    11:00Ясно и безоблачно+32°C53 %759 мм4.0 м/с2 %
    14:00Ясно и безоблачно+32°C51 %758 мм5.0 м/с2 %
    17:00Ясно и безоблачно+32°C51 %756 мм4.0 м/с2 %
    20:00Ясно и безоблачно+28°C69 %756 мм3.7 м/с2 %
    23:00Ясно и безоблачно+27°C76 %757 мм2.8 м/с2 %
  • 09сентября
    Среда
    +25°
    +32°
    Практически безоблачно
    ВремяПогодаТемператураВлажностьДавлениеВетер, м/сВероятность осадков
    02:00Ясно и безоблачно+26°C83 %756 мм2.7 м/с2 %
    08:00Ясно и безоблачно+27°C78 %755 мм2.8 м/с2 %
    14:00Практически безоблачно+32°C55 %755 мм5.5 м/с3 %
    20:00Ясно и безоблачно+28°C71 %754 мм3.3 м/с2 %
  • 10сентября
    Четверг
    +26°
    +33°
    Ясно и безоблачно
    ВремяПогодаТемператураВлажностьДавлениеВетер, м/сВероятность осадков
    02:00Ясно и безоблачно+25°C80 %754 мм2.5 м/с2 %
    08:00Ясно и безоблачно+28°C75 %755 мм4.8 м/с2 %
    14:00Ясно и безоблачно+33°C74 %755 мм5.4 м/с8 %
    20:00Практически безоблачно+28°C76 %755 мм4.9 м/с12 %
Мы используем cookies
Соглашаюсь